Latest Areodrome Forecast (TAF)

TAF VMMC 091700Z 0918/1024 36015KT 9000 FEW010 SCT025 TEMPO 0918/0924 4000 -RA BR TEMPO 1020/1024 4000 -RA BR=

Decoded TAF in plain language
Contents of Report Code Information
Report Type TAF Aerodrome Forecasts
Location VMMC Macao, China
Issuing Time 091700Z 09/12/2018 17:00 UTC
Period of Validity of Forecast 0918/1024 Between 09th 18:00 UTC and 10th 24:00 UTC
Surface Wind Direction and Speed 36015KT mean direction 360 degrees, speed 15 knots
Visibility 9000 9 kilometres
Weather    
Cloud FEW010 SCT025 amount 1-2 oktas, base 1000 feet;
amount 3-4 oktas, base 2500 feet
Expected Significant ChangesTEMPO 0918/0924 4000 -RA BRtemporarily between 09th 18:00 UTC and 09th 24:00 UTC
visibility: 4000 metres
weather: light rain; mist
 TEMPO 1020/1024 4000 -RA BRtemporarily between 10th 20:00 UTC and 10th 24:00 UTC
visibility: 4000 metres
weather: light rain; mist

OTHER INTERNATIONAL AIRPORTS:
Weather Forecast (TAF)   Weather Report (METAR)